createdAt,value
2023-04-18T00:00:47.879Z,532.6154
2023-04-18T00:01:50.205Z,532.3077
2023-04-18T00:02:50.849Z,532.3077
2023-04-18T00:03:52.283Z,531.1539
2023-04-18T00:04:53.723Z,530.3846
2023-04-18T00:05:54.936Z,531.8461
2023-04-18T00:06:56.430Z,533.0000
2023-04-18T00:07:57.795Z,534.0000
2023-04-18T00:08:59.335Z,534.3846
2023-04-18T00:10:00.711Z,534.3846
2023-04-18T00:11:02.164Z,533.1539
2023-04-18T00:12:03.510Z,533.2308
2023-04-18T00:13:05.013Z,531.7692
2023-04-18T00:14:07.169Z,531.1539
2023-04-18T00:15:07.915Z,532.0000
2023-04-18T00:16:09.299Z,534.3077
2023-04-18T00:17:10.849Z,534.3846
2023-04-18T00:18:12.115Z,534.3077
2023-04-18T00:19:13.519Z,535.2308
2023-04-18T00:20:14.959Z,536.2308
2023-04-18T00:21:16.410Z,536.8461
2023-04-18T00:22:17.741Z,537.6154
2023-04-18T00:23:19.241Z,537.8461
2023-04-18T00:24:20.556Z,537.0769
2023-04-18T00:25:21.992Z,534.4615
2023-04-18T00:26:23.622Z,533.8461
2023-04-18T00:27:24.927Z,532.6923
2023-04-18T00:28:26.341Z,533.6923
2023-04-18T00:29:27.829Z,534.3846
2023-04-18T00:30:29.237Z,532.6154
2023-04-18T00:31:30.698Z,532.0769
2023-04-18T00:32:31.999Z,532.4615
2023-04-18T00:33:33.495Z,532.6154
2023-04-18T00:34:34.844Z,533.9231
2023-04-18T00:35:36.789Z,534.3077
2023-04-18T00:36:37.812Z,535.0000
2023-04-18T00:37:39.157Z,536.1539
2023-04-18T00:38:40.543Z,537.3077
2023-04-18T00:39:42.086Z,535.3077
2023-04-18T00:40:43.455Z,533.0769
2023-04-18T00:41:44.916Z,534.8461
2023-04-18T00:42:46.252Z,532.6923
2023-04-18T00:43:47.719Z,534.6154
2023-04-18T00:44:49.098Z,534.3846
2023-04-18T00:45:50.616Z,536.4615
2023-04-18T00:46:52.017Z,535.5385
2023-04-18T00:47:53.462Z,535.1539
2023-04-18T00:48:54.815Z,533.6923
2023-04-18T00:49:56.288Z,533.6154
2023-04-18T00:50:57.762Z,533.9231
2023-04-18T00:51:59.211Z,533.6154
2023-04-18T00:53:00.555Z,534.0769
2023-04-18T00:54:01.979Z,535.0000
2023-04-18T00:55:03.364Z,534.5385
2023-04-18T00:56:05.276Z,532.4615
2023-04-18T00:57:06.276Z,534.0769
2023-04-18T00:58:07.673Z,535.6154
2023-04-18T00:59:09.151Z,534.2308
2023-04-18T01:00:10.527Z,533.3077
2023-04-18T01:01:12.044Z,535.0000
2023-04-18T01:02:13.452Z,534.1539
2023-04-18T01:03:14.959Z,534.6154
2023-04-18T01:04:17.345Z,534.0000
2023-04-18T01:05:17.656Z,534.6923
2023-04-18T01:06:19.232Z,534.6154
2023-04-18T01:07:20.516Z,533.3077
2023-04-18T01:08:21.909Z,533.8461
2023-04-18T01:09:23.359Z,532.3077
2023-04-18T01:10:24.776Z,531.4615
2023-04-18T01:11:26.289Z,533.6923
2023-04-18T01:12:27.678Z,536.0769
2023-04-18T01:13:29.100Z,537.1539
2023-04-18T01:14:30.481Z,537.3077
2023-04-18T01:15:31.991Z,537.6923
2023-04-18T01:16:33.397Z,534.1539
2023-04-18T01:17:34.873Z,533.7692
2023-04-18T01:18:36.273Z,533.5385
2023-04-18T01:19:37.646Z,536.6923
2023-04-18T01:20:39.007Z,537.7692
2023-04-18T01:21:40.557Z,537.0000
2023-04-18T01:22:41.885Z,536.3846
2023-04-18T01:23:43.331Z,536.1539
2023-04-18T01:24:44.763Z,534.1539
2023-04-18T01:25:46.202Z,533.2308
2023-04-18T01:26:47.700Z,533.3846
2023-04-18T01:27:49.164Z,531.7692
2023-04-18T01:28:50.491Z,533.2308
2023-04-18T01:29:51.991Z,535.6154
2023-04-18T01:30:53.370Z,535.2308
2023-04-18T01:31:55.034Z,533.6923
2023-04-18T01:32:56.393Z,534.7692
2023-04-18T01:33:57.844Z,536.4615
2023-04-18T01:34:59.206Z,535.9231
2023-04-18T01:36:00.615Z,535.3846
2023-04-18T01:37:02.162Z,535.4615
2023-04-18T01:38:03.575Z,536.0769
2023-04-18T01:39:04.893Z,535.7692
2023-04-18T01:40:06.349Z,536.8461
2023-04-18T01:41:07.758Z,537.4615
2023-04-18T01:42:09.300Z,536.5385
2023-04-18T01:43:10.643Z,536.3846
2023-04-18T01:44:12.296Z,535.5385
2023-04-18T01:45:13.468Z,534.0769
2023-04-18T01:46:15.019Z,532.6154
2023-04-18T01:47:16.423Z,534.3077
2023-04-18T01:48:17.919Z,536.0000
2023-04-18T01:49:19.216Z,534.8461
2023-04-18T01:50:20.696Z,533.5385
2023-04-18T01:51:22.072Z,533.9231
2023-04-18T01:52:23.633Z,533.1539
2023-04-18T01:53:24.977Z,534.2308
2023-04-18T01:54:26.405Z,533.3846
2023-04-18T01:55:27.794Z,531.9231
2023-04-18T01:56:29.398Z,533.6923
2023-04-18T01:57:30.764Z,532.3077
2023-04-18T01:58:32.159Z,532.3077
2023-04-18T01:59:33.489Z,534.6923
2023-04-18T02:00:35.012Z,533.0000
2023-04-18T02:01:36.433Z,535.4615
2023-04-18T02:02:38.052Z,537.0000
2023-04-18T02:03:39.514Z,537.5385
2023-04-18T02:04:40.727Z,539.1539
2023-04-18T02:05:42.108Z,539.6923
2023-04-18T02:06:43.607Z,540.3846
2023-04-18T02:07:44.994Z,537.8461
2023-04-18T02:08:46.519Z,538.3077
2023-04-18T02:09:47.775Z,536.0000
2023-04-18T02:10:49.261Z,533.3077
2023-04-18T02:11:50.654Z,534.0000
2023-04-18T02:12:52.155Z,534.0769
2023-04-18T02:13:53.597Z,534.7692
2023-04-18T02:14:54.999Z,536.0000
2023-04-18T02:15:56.382Z,537.6923
2023-04-18T02:16:57.950Z,536.5385
2023-04-18T02:17:59.378Z,537.0769
2023-04-18T02:19:00.727Z,536.3077
2023-04-18T02:20:02.161Z,536.0769
2023-04-18T02:21:03.591Z,535.5385
2023-04-18T02:22:04.962Z,536.3846
2023-04-18T02:23:06.451Z,536.3846
2023-04-18T02:24:07.904Z,537.5385
2023-04-18T02:25:09.293Z,536.9231
2023-04-18T02:26:10.693Z,536.3077
2023-04-18T02:27:12.136Z,535.5385
2023-04-18T02:28:13.597Z,535.4615
2023-04-18T02:29:15.036Z,537.3846
2023-04-18T02:30:16.447Z,538.1539
2023-04-18T02:31:17.842Z,540.7692
2023-04-18T02:32:19.279Z,540.2308
2023-04-18T02:33:20.802Z,541.7692
2023-04-18T02:34:22.216Z,540.3077
2023-04-18T02:35:23.641Z,539.0769
2023-04-18T02:36:25.049Z,536.2308
2023-04-18T02:37:26.522Z,536.1539
2023-04-18T02:38:28.301Z,536.1539
2023-04-18T02:39:29.332Z,538.7692
2023-04-18T02:40:30.766Z,539.7692
2023-04-18T02:41:32.199Z,538.3077
2023-04-18T02:42:33.714Z,536.2308
2023-04-18T02:43:35.080Z,536.8461
2023-04-18T02:44:36.762Z,535.9231
2023-04-18T02:45:37.927Z,535.0769
2023-04-18T02:46:39.305Z,533.3846
2023-04-18T02:47:51.127Z,532.0000
2023-04-18T02:48:42.322Z,533.0000
2023-04-18T02:49:43.664Z,534.3077
2023-04-18T02:50:44.992Z,536.1539
2023-04-18T02:51:46.487Z,536.1539
2023-04-18T02:52:47.927Z,535.5385
2023-04-18T02:53:49.394Z,537.1539
2023-04-18T02:54:50.834Z,538.8461
2023-04-18T02:55:52.217Z,538.2308
2023-04-18T02:56:53.649Z,539.0000
2023-04-18T02:57:55.088Z,539.4615
2023-04-18T02:58:56.525Z,537.6923
2023-04-18T02:59:58.010Z,536.6154
2023-04-18T03:00:59.340Z,538.0769
2023-04-18T03:02:00.909Z,537.3846
2023-04-18T03:03:02.344Z,537.0769
2023-04-18T03:04:03.744Z,537.3846
2023-04-18T03:05:05.211Z,535.8461
2023-04-18T03:06:06.564Z,537.3846
2023-04-18T03:07:08.728Z,537.4615
2023-04-18T03:08:09.349Z,532.1539
2023-04-18T03:09:10.838Z,529.1539
2023-04-18T03:10:12.344Z,531.8461
2023-04-18T03:11:13.676Z,532.3077
2023-04-18T03:12:15.046Z,533.9231
2023-04-18T03:13:16.538Z,530.7692
2023-04-18T03:14:17.958Z,529.2308
2023-04-18T03:15:19.403Z,530.0769
2023-04-18T03:16:20.958Z,529.3846
2023-04-18T03:17:22.256Z,528.6923
2023-04-18T03:18:23.605Z,528.2308
2023-04-18T03:19:25.130Z,528.6154
2023-04-18T03:20:26.563Z,528.4615
2023-04-18T03:21:27.964Z,530.1539
2023-04-18T03:22:29.322Z,533.0000
2023-04-18T03:23:30.790Z,530.8461
2023-04-18T03:24:32.293Z,528.9231
2023-04-18T03:25:33.794Z,528.1539
2023-04-18T03:26:35.107Z,530.5385
2023-04-18T03:27:36.510Z,528.6923
2023-04-18T03:28:37.934Z,529.1539
2023-04-18T03:29:39.405Z,529.0769
2023-04-18T03:30:40.802Z,528.6154
2023-04-18T03:31:42.277Z,528.6154
2023-04-18T03:32:43.715Z,530.7692
2023-04-18T03:33:45.083Z,529.0769
2023-04-18T03:34:46.549Z,528.7692
2023-04-18T03:35:48.116Z,528.4615
2023-04-18T03:36:49.354Z,526.9231
2023-04-18T03:37:50.829Z,527.0000
2023-04-18T03:38:52.232Z,526.6923
2023-04-18T03:39:53.725Z,527.0000
2023-04-18T03:40:55.124Z,527.7692
2023-04-18T03:41:56.540Z,528.4615
2023-04-18T03:42:57.927Z,525.6154
2023-04-18T03:43:59.438Z,528.9231
2023-04-18T03:45:01.252Z,528.4615
2023-04-18T03:46:02.373Z,527.5385
2023-04-18T03:47:03.647Z,528.6154
2023-04-18T03:48:05.088Z,529.4615
2023-04-18T03:49:06.429Z,530.1539
2023-04-18T03:50:07.959Z,531.1539
2023-04-18T03:51:09.344Z,530.5385
2023-04-18T03:52:10.787Z,530.6154
2023-04-18T03:53:12.195Z,531.7692
2023-04-18T03:54:13.886Z,530.6154
2023-04-18T03:55:15.376Z,531.5385
2023-04-18T03:56:16.574Z,531.0769
2023-04-18T03:57:17.875Z,528.3846
2023-04-18T03:58:19.313Z,530.5385
2023-04-18T03:59:20.752Z,533.5385
2023-04-18T04:00:22.402Z,532.0000
2023-04-18T04:01:23.682Z,530.3846
2023-04-18T04:02:25.237Z,529.7692
2023-04-18T04:03:26.541Z,529.3846
2023-04-18T04:04:28.016Z,529.2308
2023-04-18T04:05:29.453Z,528.6923
2023-04-18T04:06:30.857Z,527.5385
2023-04-18T04:07:32.244Z,527.9231
2023-04-18T04:08:33.697Z,528.7692
2023-04-18T04:09:35.153Z,528.6154
2023-04-18T04:10:36.547Z,529.3846
2023-04-18T04:11:38.020Z,530.0000
2023-04-18T04:12:39.447Z,529.8461
2023-04-18T04:13:40.818Z,532.0000
2023-04-18T04:14:42.244Z,531.6923
2023-04-18T04:15:43.766Z,532.5385
2023-04-18T04:16:45.259Z,532.5385
2023-04-18T04:17:46.642Z,531.2308
2023-04-18T04:18:47.979Z,533.2308
2023-04-18T04:19:49.416Z,532.6154
2023-04-18T04:20:50.820Z,531.3846
2023-04-18T04:21:52.285Z,528.4615
2023-04-18T04:22:53.682Z,528.4615
2023-04-18T04:23:55.104Z,526.3846
2023-04-18T04:24:56.494Z,527.0000
2023-04-18T04:25:58.094Z,524.9231
2023-04-18T04:26:59.450Z,526.1539
2023-04-18T04:28:00.865Z,526.5385
2023-04-18T04:29:02.227Z,526.3846
2023-04-18T04:30:03.761Z,522.6154
2023-04-18T04:31:05.140Z,524.4615
2023-04-18T04:32:06.746Z,524.6923
2023-04-18T04:33:07.961Z,523.6923
2023-04-18T04:34:09.395Z,523.0769
2023-04-18T04:35:10.762Z,521.4615
2023-04-18T04:36:12.305Z,524.3846
2023-04-18T04:37:13.748Z,525.3846
2023-04-18T04:38:15.196Z,526.4615
2023-04-18T04:39:16.567Z,525.4615
2023-04-18T04:40:17.973Z,526.6923
2023-04-18T04:41:19.410Z,526.2308
2023-04-18T04:42:20.934Z,526.2308
2023-04-18T04:43:22.280Z,525.3077
2023-04-18T04:44:23.744Z,526.9231
2023-04-18T04:45:25.052Z,527.4615
2023-04-18T04:46:26.576Z,527.9231
2023-04-18T04:47:28.094Z,527.4615
2023-04-18T04:48:29.446Z,527.4615
2023-04-18T04:49:30.846Z,527.8461
2023-04-18T04:50:32.307Z,529.5385
2023-04-18T04:51:33.720Z,527.7692
2023-04-18T04:52:35.131Z,526.3846
2023-04-18T04:53:36.575Z,527.1539
2023-04-18T04:54:38.045Z,527.4615
2023-04-18T04:55:39.382Z,528.3846
2023-04-18T04:56:40.903Z,527.8461
2023-04-18T04:57:42.370Z,529.2308
2023-04-18T04:58:43.800Z,526.0769
2023-04-18T04:59:45.145Z,524.1539
2023-04-18T05:00:46.610Z,522.1539
2023-04-18T05:01:48.068Z,520.0000
2023-04-18T05:02:49.617Z,517.5385
2023-04-18T05:03:51.512Z,517.9231
2023-04-18T05:04:52.359Z,517.0000
2023-04-18T05:05:53.739Z,516.2308
2023-04-18T05:06:55.168Z,515.3846
2023-04-18T05:07:56.612Z,514.9231
2023-04-18T05:08:58.068Z,513.6923
2023-04-18T05:09:59.582Z,513.8461
2023-04-18T05:11:00.835Z,513.6923
2023-04-18T05:12:02.328Z,513.4615
2023-04-18T05:13:03.717Z,514.0000
2023-04-18T05:14:05.286Z,510.8462
2023-04-18T05:15:06.623Z,509.6923
2023-04-18T05:16:08.044Z,510.3846
2023-04-18T05:17:09.512Z,509.0000
2023-04-18T05:18:10.914Z,506.9231
2023-04-18T05:19:12.405Z,507.1538
2023-04-18T05:20:13.870Z,507.1538
2023-04-18T05:21:15.249Z,504.0769
2023-04-18T05:22:16.666Z,505.0000
2023-04-18T05:23:18.101Z,505.0000
2023-04-18T05:24:19.496Z,505.3077
2023-04-18T05:25:20.968Z,503.8462
2023-04-18T05:26:22.404Z,502.5385
2023-04-18T05:27:23.799Z,504.0769
2023-04-18T05:28:25.152Z,504.8462
2023-04-18T05:29:26.611Z,503.7692
2023-04-18T05:30:28.047Z,503.5385
2023-04-18T05:31:29.587Z,501.7692
2023-04-18T05:32:30.969Z,501.0769
2023-04-18T05:33:32.399Z,500.5385
2023-04-18T05:34:33.973Z,500.6154
2023-04-18T05:35:35.314Z,502.7692
2023-04-18T05:36:36.722Z,503.1538
2023-04-18T05:37:38.139Z,503.9231
2023-04-18T05:38:39.630Z,503.7692
2023-04-18T05:39:41.042Z,502.5385
2023-04-18T05:40:42.458Z,502.3846
2023-04-18T05:41:43.818Z,501.0769
2023-04-18T05:42:45.347Z,501.2308
2023-04-18T05:43:54.531Z,501.6923
2023-04-18T05:44:48.192Z,498.1538
2023-04-18T05:45:49.537Z,495.0000
2023-04-18T05:46:50.965Z,495.3077
2023-04-18T05:47:52.908Z,502.3846
2023-04-18T05:48:53.995Z,503.2308
2023-04-18T05:49:55.272Z,501.2308
2023-04-18T05:50:56.771Z,500.6923
2023-04-18T05:51:58.928Z,502.4615
2023-04-18T05:52:59.627Z,500.2308
2023-04-18T05:54:01.145Z,500.4615
2023-04-18T05:55:02.453Z,501.6154
2023-04-18T05:56:03.838Z,502.4615
2023-04-18T05:57:05.263Z,501.8462
2023-04-18T05:58:06.879Z,497.7692
2023-04-18T05:59:08.137Z,497.1538
2023-04-18T06:00:09.587Z,498.3846
2023-04-18T06:01:10.981Z,498.5385
2023-04-18T06:02:12.509Z,498.7692
2023-04-18T06:03:14.046Z,496.3077
2023-04-18T06:04:15.640Z,498.3077
2023-04-18T06:05:16.835Z,499.6923
2023-04-18T06:06:18.108Z,499.4615
2023-04-18T06:07:19.579Z,497.6923
2023-04-18T06:08:20.993Z,497.0000
2023-04-18T06:09:22.390Z,494.6923
2023-04-18T06:10:23.924Z,496.6154
2023-04-18T06:11:25.830Z,500.6923
2023-04-18T06:12:26.728Z,502.2308
2023-04-18T06:13:28.337Z,500.6154
2023-04-18T06:14:29.619Z,500.7692
2023-04-18T06:15:30.897Z,500.4615
2023-04-18T06:16:32.513Z,501.2308
2023-04-18T06:17:33.833Z,500.0769
2023-04-18T06:18:35.298Z,500.0000
2023-04-18T06:19:36.687Z,498.7692
2023-04-18T06:20:38.167Z,498.5385
2023-04-18T06:21:39.525Z,499.6923
2023-04-18T06:22:41.108Z,499.7692
2023-04-18T06:23:42.462Z,499.3846
2023-04-18T06:24:43.876Z,498.2308
2023-04-18T06:25:45.257Z,498.2308
2023-04-18T06:26:46.674Z,499.2308
2023-04-18T06:27:48.198Z,497.9231
2023-04-18T06:28:49.900Z,500.1538
2023-04-18T06:29:51.006Z,493.9231
2023-04-18T06:30:52.661Z,491.8462
2023-04-18T06:31:53.889Z,494.0769
2023-04-18T06:32:55.244Z,493.3846
2023-04-18T06:33:56.884Z,495.7692
2023-04-18T06:34:58.114Z,496.0769
2023-04-18T06:35:59.564Z,498.0000
2023-04-18T06:37:00.964Z,496.4615
2023-04-18T06:38:02.453Z,497.3077
2023-04-18T06:39:03.908Z,495.6154
2023-04-18T06:40:05.298Z,498.1538
2023-04-18T06:41:06.692Z,499.8462
2023-04-18T06:42:08.852Z,499.8462
2023-04-18T06:43:09.532Z,500.6154
2023-04-18T06:44:11.078Z,498.2308
2023-04-18T06:45:12.372Z,497.3077
2023-04-18T06:46:13.917Z,498.3846
2023-04-18T06:47:15.176Z,499.2308
2023-04-18T06:48:16.571Z,496.5385
2023-04-18T06:49:18.104Z,496.4615
2023-04-18T06:50:19.538Z,496.6923
2023-04-18T06:51:20.939Z,498.3846
2023-04-18T06:52:22.329Z,502.1538
2023-04-18T06:53:23.748Z,502.1538
2023-04-18T06:54:25.215Z,505.3846
2023-04-18T06:55:26.678Z,508.2308
2023-04-18T06:56:28.131Z,510.5385
2023-04-18T06:57:29.452Z,510.2308
2023-04-18T06:58:30.850Z,512.4615
2023-04-18T06:59:32.351Z,512.3846
2023-04-18T07:00:33.825Z,514.8461
2023-04-18T07:01:35.906Z,515.8461
2023-04-18T07:02:36.695Z,516.8461
2023-04-18T07:03:38.039Z,517.0769
2023-04-18T07:04:39.495Z,513.6154
2023-04-18T07:05:40.977Z,511.4615
2023-04-18T07:06:42.280Z,513.2308
2023-04-18T07:07:43.712Z,513.8461
2023-04-18T07:08:45.090Z,512.3077
2023-04-18T07:09:46.597Z,513.3077
2023-04-18T07:10:47.997Z,513.0000
2023-04-18T07:11:49.415Z,511.0769
2023-04-18T07:12:50.791Z,509.6154
2023-04-18T07:13:52.282Z,508.8462
2023-04-18T07:14:54.354Z,508.6923
2023-04-18T07:15:55.403Z,505.8462
2023-04-18T07:16:56.542Z,505.0000
2023-04-18T07:17:58.870Z,504.8462
2023-04-18T07:18:59.375Z,507.0769
2023-04-18T07:20:00.850Z,509.2308
2023-04-18T07:21:02.299Z,509.3846
2023-04-18T07:22:03.667Z,507.0769
2023-04-18T07:23:05.000Z,501.8462
2023-04-18T07:24:06.511Z,502.1538
2023-04-18T07:25:07.976Z,503.3077
2023-04-18T07:26:09.368Z,504.1538
2023-04-18T07:27:10.849Z,504.3846
2023-04-18T07:28:12.193Z,504.0000
2023-04-18T07:29:13.617Z,504.0000
2023-04-18T07:30:15.064Z,505.0000
2023-04-18T07:31:16.731Z,505.8462
2023-04-18T07:32:17.876Z,504.8462
2023-04-18T07:33:19.323Z,501.6154
2023-04-18T07:34:20.694Z,498.5385
2023-04-18T07:35:22.234Z,500.0769
2023-04-18T07:36:23.644Z,500.9231
2023-04-18T07:37:25.041Z,498.4615
2023-04-18T07:38:26.408Z,498.3846
2023-04-18T07:39:27.846Z,497.0000
2023-04-18T07:40:29.260Z,498.0000
2023-04-18T07:41:30.727Z,498.0769
2023-04-18T07:42:32.074Z,498.9231
2023-04-18T07:43:33.580Z,497.9231
2023-04-18T07:44:34.921Z,496.1538
2023-04-18T07:45:36.409Z,498.7692
2023-04-18T07:46:37.843Z,499.3846
2023-04-18T07:47:39.269Z,498.6923
2023-04-18T07:48:40.682Z,498.0769
2023-04-18T07:49:42.073Z,497.5385
2023-04-18T07:50:43.568Z,499.0000
2023-04-18T07:51:44.918Z,497.6923
2023-04-18T07:52:46.290Z,495.5385
2023-04-18T07:53:47.707Z,493.4615
2023-04-18T07:54:49.108Z,493.1538
2023-04-18T07:55:50.625Z,494.3846
2023-04-18T07:56:52.046Z,496.0769
2023-04-18T07:57:53.456Z,494.7692
2023-04-18T07:58:54.873Z,493.5385
2023-04-18T07:59:56.227Z,491.4615
2023-04-18T08:00:57.772Z,493.0769
2023-04-18T08:01:59.285Z,496.2308
2023-04-18T08:03:00.741Z,497.6154
2023-04-18T08:04:02.346Z,500.3077
2023-04-18T08:05:03.558Z,498.3077
2023-04-18T08:06:04.912Z,494.2308
2023-04-18T08:07:06.251Z,492.6923
2023-04-18T08:08:07.622Z,492.9231
2023-04-18T08:09:09.070Z,491.7692
2023-04-18T08:10:10.476Z,491.7692
2023-04-18T08:11:11.996Z,491.5385
2023-04-18T08:12:13.353Z,490.3077
2023-04-18T08:13:14.780Z,491.1538
2023-04-18T08:14:16.132Z,493.8462
2023-04-18T08:15:17.575Z,493.9231
2023-04-18T08:16:19.033Z,493.9231
2023-04-18T08:17:20.531Z,492.6923
2023-04-18T08:18:21.839Z,492.4615
2023-04-18T08:19:23.285Z,494.4615
2023-04-18T08:20:24.672Z,494.0769
2023-04-18T08:21:26.174Z,494.2308
2023-04-18T08:22:27.551Z,492.4615
2023-04-18T08:23:28.991Z,492.1538
2023-04-18T08:24:30.358Z,496.1538
2023-04-18T08:25:31.892Z,494.0000
2023-04-18T08:26:33.338Z,494.3846
2023-04-18T08:27:34.749Z,496.9231
2023-04-18T08:28:36.065Z,497.3077
2023-04-18T08:29:37.549Z,497.1538
2023-04-18T08:30:38.908Z,498.3077
2023-04-18T08:31:40.429Z,495.1538
2023-04-18T08:32:41.843Z,494.3077
2023-04-18T08:33:43.194Z,496.6154
2023-04-18T08:34:44.579Z,497.1538
2023-04-18T08:35:46.050Z,499.9231
2023-04-18T08:36:47.494Z,499.0769
2023-04-18T08:37:49.010Z,498.1538
2023-04-18T08:38:50.192Z,496.6923
2023-04-18T08:39:51.764Z,497.3846
2023-04-18T08:40:53.130Z,497.0769
2023-04-18T08:41:54.632Z,495.7692
2023-04-18T08:42:56.000Z,497.0000
2023-04-18T08:43:57.393Z,496.6154
2023-04-18T08:44:58.743Z,494.9231
2023-04-18T08:46:00.305Z,500.0000
2023-04-18T08:47:01.837Z,501.6154
2023-04-18T08:48:03.204Z,500.4615
2023-04-18T08:49:04.540Z,499.7692
2023-04-18T08:50:06.061Z,499.1538
2023-04-18T08:51:07.334Z,496.2308
2023-04-18T08:52:08.770Z,495.7692
2023-04-18T08:53:10.284Z,497.7692
2023-04-18T08:54:11.653Z,496.4615
2023-04-18T08:55:13.041Z,494.2308
2023-04-18T08:56:14.427Z,494.8462
2023-04-18T08:57:15.904Z,497.2308
2023-04-18T08:58:17.295Z,499.3846
2023-04-18T08:59:18.691Z,500.1538
2023-04-18T09:00:20.132Z,501.0000
2023-04-18T09:01:21.608Z,501.7692
2023-04-18T09:02:23.138Z,498.8462
2023-04-18T09:03:24.484Z,497.7692
2023-04-18T09:04:25.870Z,496.6923
2023-04-18T09:05:27.374Z,498.6923
2023-04-18T09:06:28.684Z,501.6154
2023-04-18T09:07:30.122Z,502.9231
2023-04-18T09:08:31.533Z,501.0769
2023-04-18T09:09:32.956Z,501.5385
2023-04-18T09:10:34.393Z,500.3846
2023-04-18T09:11:35.802Z,500.5385
2023-04-18T09:12:37.285Z,499.9231
2023-04-18T09:13:38.776Z,498.1538
2023-04-18T09:14:40.073Z,497.3077
2023-04-18T09:15:42.325Z,503.8462
2023-04-18T09:16:42.918Z,503.2308
2023-04-18T09:17:44.337Z,504.1538
2023-04-18T09:18:45.772Z,504.2308
2023-04-18T09:19:47.453Z,501.4615
2023-04-18T09:20:48.543Z,499.9231
2023-04-18T09:21:50.038Z,498.3077
2023-04-18T09:22:51.411Z,498.1538
2023-04-18T09:23:52.944Z,499.3077
2023-04-18T09:24:54.322Z,501.8462
2023-04-18T09:25:55.723Z,500.8462
2023-04-18T09:26:57.125Z,499.7692
2023-04-18T09:27:58.551Z,497.6923
2023-04-18T09:28:59.998Z,496.6154
2023-04-18T09:30:01.471Z,499.6923
2023-04-18T09:31:02.891Z,501.0000
2023-04-18T09:32:04.227Z,500.5385
2023-04-18T09:33:05.790Z,501.1538
2023-04-18T09:34:07.149Z,498.8462
2023-04-18T09:35:08.557Z,498.0769
2023-04-18T09:36:10.057Z,497.4615
2023-04-18T09:37:11.559Z,494.3077
2023-04-18T09:38:12.900Z,495.6923
2023-04-18T09:39:14.455Z,496.1538
2023-04-18T09:40:15.878Z,497.3846
2023-04-18T09:41:19.898Z,497.8462
2023-04-18T09:42:18.578Z,498.9231
2023-04-18T09:43:20.042Z,499.3077
2023-04-18T09:44:21.477Z,498.0000
2023-04-18T09:45:22.873Z,498.5385
2023-04-18T09:46:24.265Z,496.3077
2023-04-18T09:47:25.797Z,494.6154
2023-04-18T09:48:27.214Z,495.4615
2023-04-18T09:49:28.607Z,498.0769
2023-04-18T09:50:30.031Z,494.2308
2023-04-18T09:51:31.344Z,491.5385
2023-04-18T09:52:32.752Z,491.9231
2023-04-18T09:53:34.226Z,494.0769
2023-04-18T09:54:35.713Z,492.6154
2023-04-18T09:55:37.135Z,494.7692
2023-04-18T09:56:38.574Z,494.4615
2023-04-18T09:57:40.021Z,491.5385
2023-04-18T09:58:41.318Z,493.6154
2023-04-18T09:59:42.793Z,495.8462
2023-04-18T10:00:46.363Z,497.0000
2023-04-18T10:01:45.626Z,494.6154
2023-04-18T10:02:47.120Z,493.0769
2023-04-18T10:03:48.665Z,496.3846
2023-04-18T10:04:49.951Z,494.0769
2023-04-18T10:05:51.424Z,495.3077
2023-04-18T10:06:53.446Z,493.6923
2023-04-18T10:07:54.085Z,492.6923
2023-04-18T10:08:55.587Z,491.0769
2023-04-18T10:09:57.004Z,491.0000
2023-04-18T10:10:58.417Z,491.8462
2023-04-18T10:11:59.803Z,493.6154
2023-04-18T10:13:01.226Z,493.6923
2023-04-18T10:14:02.596Z,493.4615
2023-04-18T10:15:04.136Z,492.2308
2023-04-18T10:16:05.989Z,491.0000
2023-04-18T10:17:06.963Z,495.0000
2023-04-18T10:18:08.339Z,494.6923
2023-04-18T10:19:09.892Z,494.7692
2023-04-18T10:20:11.209Z,495.6154
2023-04-18T10:21:12.597Z,493.8462
2023-04-18T10:22:14.043Z,492.6923
2023-04-18T10:23:15.425Z,493.6923
2023-04-18T10:24:16.803Z,493.7692
2023-04-18T10:25:18.337Z,493.2308
2023-04-18T10:26:19.734Z,493.6154
2023-04-18T10:27:21.099Z,492.0000
2023-04-18T10:28:23.408Z,492.4615
2023-04-18T10:29:23.964Z,493.0000
2023-04-18T10:30:25.465Z,494.5385
2023-04-18T10:31:27.160Z,494.5385
2023-04-18T10:32:28.317Z,491.7692
2023-04-18T10:33:31.921Z,492.3846
2023-04-18T10:34:31.057Z,493.0769
2023-04-18T10:35:32.565Z,491.4615
2023-04-18T10:36:33.950Z,491.2308
2023-04-18T10:37:35.336Z,490.2308
2023-04-18T10:38:36.714Z,489.6923
2023-04-18T10:39:38.177Z,489.0000
2023-04-18T10:40:39.559Z,488.2308
2023-04-18T10:41:41.042Z,486.0000
2023-04-18T10:42:42.394Z,487.8462
2023-04-18T10:43:45.471Z,487.9231
2023-04-18T10:55:55.265Z,550.0000
2023-04-18T10:55:55.265Z,509.5000
2023-04-18T10:56:57.614Z,526.3571
2023-04-18T10:57:58.877Z,525.3077
2023-04-18T10:59:00.411Z,530.3846
2023-04-18T11:00:01.965Z,539.1539
2023-04-18T11:01:03.334Z,542.0000
2023-04-18T11:02:04.771Z,540.8461
2023-04-18T11:03:06.245Z,535.6923
2023-04-18T11:04:07.749Z,530.3846
2023-04-18T11:05:08.970Z,527.0000
2023-04-18T11:06:10.380Z,526.5385
2023-04-18T11:07:11.716Z,527.6154
2023-04-18T11:08:13.195Z,528.0769
2023-04-18T11:09:14.788Z,524.1539
2023-04-18T11:10:16.122Z,520.0000
2023-04-18T11:11:17.567Z,519.0769
2023-04-18T11:12:18.863Z,519.6923
2023-04-18T11:13:20.325Z,518.1539
2023-04-18T11:14:21.758Z,518.6154
2023-04-18T11:15:23.161Z,521.3846
2023-04-18T11:16:24.610Z,517.5385
2023-04-18T11:17:26.164Z,515.6923
2023-04-18T11:18:27.493Z,516.3846
2023-04-18T11:19:28.858Z,515.7692
2023-04-18T11:20:30.309Z,515.8461
2023-04-18T11:21:31.698Z,514.1539
2023-04-18T11:22:33.202Z,510.9231
2023-04-18T11:23:34.604Z,509.5385
2023-04-18T11:24:35.981Z,511.0000
2023-04-18T11:25:37.340Z,507.0000
2023-04-18T11:26:38.817Z,508.0000
2023-04-18T11:27:40.241Z,509.5385
2023-04-18T11:28:41.684Z,508.7692
2023-04-18T11:29:43.113Z,508.2308
2023-04-18T11:30:44.496Z,506.6923
2023-04-18T11:31:46.001Z,507.6923
2023-04-18T11:32:47.482Z,504.6154
2023-04-18T11:33:48.831Z,505.0000
2023-04-18T11:34:50.186Z,502.6154
2023-04-18T11:35:51.635Z,502.2308
2023-04-18T11:36:53.155Z,498.3077
2023-04-18T11:37:54.504Z,497.4615
2023-04-18T11:38:55.973Z,499.5385
2023-04-18T11:39:57.236Z,500.6923
2023-04-18T11:40:58.729Z,501.3846
2023-04-18T11:42:00.201Z,500.0000
2023-04-18T11:43:01.604Z,498.0769
2023-04-18T11:44:03.076Z,494.7692
2023-04-18T11:45:04.425Z,492.5385
2023-04-18T11:46:05.867Z,492.5385
2023-04-18T11:47:07.194Z,493.3846
2023-04-18T11:48:08.861Z,494.3077
2023-04-18T11:49:10.304Z,493.3077
2023-04-18T11:50:11.576Z,491.3846
2023-04-18T11:51:12.998Z,492.1538
2023-04-18T11:52:14.417Z,493.4615
2023-04-18T11:53:15.718Z,493.4615
2023-04-18T11:54:17.293Z,493.7692
2023-04-18T11:55:18.676Z,496.3077
2023-04-18T11:56:20.128Z,494.8462
2023-04-18T11:57:21.567Z,494.0000
2023-04-18T11:58:22.967Z,495.6923
2023-04-18T11:59:24.485Z,494.4615
2023-04-18T12:00:25.735Z,494.5385
2023-04-18T12:01:27.111Z,495.0769
2023-04-18T12:02:28.798Z,494.3077
2023-04-18T12:03:30.319Z,493.6923
2023-04-18T12:04:31.723Z,493.1538
2023-04-18T12:05:33.044Z,492.7692
2023-04-18T12:06:34.345Z,493.0769
2023-04-18T12:07:35.731Z,489.7692
2023-04-18T12:08:37.077Z,490.6923
2023-04-18T12:09:38.701Z,494.3077
2023-04-18T12:10:40.069Z,495.0769
2023-04-18T12:11:41.469Z,494.0769